createdAt,value
2023-03-01T00:01:20.262Z,5.64
2023-03-01T00:06:25.857Z,5.60
2023-03-01T00:11:30.605Z,5.50
2023-03-01T00:16:35.719Z,5.44
2023-03-01T00:21:40.984Z,5.43
2023-03-01T00:26:44.430Z,5.36
2023-03-01T00:31:47.923Z,5.40
2023-03-01T00:36:53.160Z,5.34
2023-03-01T00:41:57.379Z,5.22
2023-03-01T00:47:00.862Z,5.21
2023-03-01T00:52:06.139Z,5.18
2023-03-01T00:57:09.577Z,5.12
2023-03-01T01:02:13.328Z,5.01
2023-03-01T01:07:18.392Z,5.02
2023-03-01T01:12:21.910Z,4.82
2023-03-01T01:17:25.340Z,4.84
2023-03-01T01:22:30.334Z,4.90
2023-03-01T01:27:33.879Z,4.84
2023-03-01T01:32:37.320Z,4.82
2023-03-01T01:37:42.356Z,4.77
2023-03-01T01:42:45.852Z,4.72
2023-03-01T01:47:49.602Z,4.66
2023-03-01T01:52:55.773Z,4.63
2023-03-01T01:58:01.736Z,4.63
2023-03-01T02:03:07.418Z,4.55
2023-03-01T02:08:14.093Z,4.49
2023-03-01T02:13:17.568Z,4.44
2023-03-01T02:18:23.207Z,4.47
2023-03-01T02:23:28.078Z,4.44
2023-03-01T02:28:35.336Z,4.39
2023-03-01T02:33:40.605Z,4.31
2023-03-01T02:38:44.351Z,4.21
2023-03-01T02:43:49.477Z,4.25
2023-03-01T02:48:54.570Z,4.24
2023-03-01T02:54:12.360Z,4.17
2023-03-01T02:59:18.868Z,4.09
2023-03-01T03:04:22.535Z,4.07
2023-03-01T03:09:27.164Z,4.07
2023-03-01T03:14:35.758Z,4.06
2023-03-01T03:19:39.396Z,3.99
2023-03-01T03:24:42.912Z,3.93
2023-03-01T03:29:47.813Z,3.91
2023-03-01T03:34:51.216Z,3.95
2023-03-01T03:39:55.808Z,3.77
2023-03-01T03:45:00.757Z,3.77
2023-03-01T03:50:04.273Z,3.74
2023-03-01T03:55:11.968Z,3.77
2023-03-01T04:00:20.898Z,3.74
2023-03-01T04:05:26.507Z,3.74
2023-03-01T04:10:31.003Z,3.68
2023-03-01T04:15:36.232Z,3.68
2023-03-01T04:20:39.941Z,3.63
2023-03-01T04:25:45.082Z,3.67
2023-03-01T04:30:49.948Z,3.60
2023-03-01T04:35:53.690Z,3.54
2023-03-01T04:40:57.359Z,3.56
2023-03-01T04:46:04.967Z,3.51
2023-03-01T04:51:09.496Z,3.47
2023-03-01T04:56:14.658Z,3.42
2023-03-01T05:01:21.156Z,3.35
2023-03-01T05:06:24.681Z,3.29
2023-03-01T05:11:32.723Z,3.29
2023-03-01T05:16:38.380Z,3.30
2023-03-01T05:22:01.861Z,3.30
2023-03-01T05:27:05.440Z,3.31
2023-03-01T05:32:12.148Z,3.31
2023-03-01T05:37:15.762Z,3.24
2023-03-01T05:42:19.294Z,3.24
2023-03-01T05:47:24.205Z,3.18
2023-03-01T05:52:27.664Z,3.14
2023-03-01T05:57:31.367Z,3.21
2023-03-01T06:02:36.230Z,3.14
2023-03-01T06:07:40.041Z,3.17
2023-03-01T06:12:44.817Z,3.17
2023-03-01T06:17:49.830Z,3.14
2023-03-01T06:22:53.686Z,3.13
2023-03-01T06:27:57.213Z,3.09
2023-03-01T06:33:02.750Z,3.18
2023-03-01T06:38:09.290Z,3.18
2023-03-01T06:43:13.954Z,3.16
2023-03-01T06:48:18.943Z,3.27
2023-03-01T06:53:26.813Z,3.37
2023-03-01T06:58:38.903Z,3.43
2023-03-01T07:03:48.879Z,3.61
2023-03-01T07:08:52.558Z,3.86
2023-03-01T07:14:01.472Z,4.02
2023-03-01T07:19:06.683Z,4.19
2023-03-01T07:24:11.458Z,4.29
2023-03-01T07:29:15.239Z,4.67
2023-03-01T07:34:20.452Z,4.97
2023-03-01T07:39:25.082Z,5.22
2023-03-01T07:44:29.257Z,5.51
2023-03-01T07:49:34.352Z,5.76
2023-03-01T07:54:38.056Z,5.97
2023-03-01T07:59:41.948Z,6.25
2023-03-01T08:04:47.015Z,6.72
2023-03-01T08:09:57.001Z,7.07
2023-03-01T08:15:24.077Z,7.27
2023-03-01T08:20:34.517Z,7.61
2023-03-01T08:25:38.119Z,7.70
2023-03-01T08:30:41.691Z,7.98
2023-03-01T08:35:46.644Z,8.52
2023-03-01T08:40:50.093Z,8.57
2023-03-01T08:45:53.641Z,8.87
2023-03-01T08:50:58.637Z,9.23
2023-03-01T08:56:03.484Z,9.49
2023-03-01T09:01:09.634Z,10.02
2023-03-01T09:06:14.952Z,10.14
2023-03-01T09:11:21.057Z,10.55
2023-03-01T09:16:25.131Z,10.73
2023-03-01T09:21:40.221Z,10.74
2023-03-01T09:26:47.801Z,11.25
2023-03-01T09:31:52.051Z,11.72
2023-03-01T09:36:57.046Z,12.02
2023-03-01T09:42:02.985Z,12.51
2023-03-01T09:47:12.111Z,12.79
2023-03-01T09:52:23.764Z,12.90
2023-03-01T09:57:32.406Z,12.96
2023-03-01T10:02:41.622Z,13.34
2023-03-01T10:07:51.202Z,12.88
2023-03-01T10:12:55.073Z,12.87
2023-03-01T10:18:00.197Z,13.14
2023-03-01T10:23:05.093Z,13.00
2023-03-01T10:28:14.605Z,14.30
2023-03-01T10:33:27.364Z,14.23
2023-03-01T10:38:34.128Z,14.52
2023-03-01T10:43:46.135Z,14.69
2023-03-01T10:49:08.223Z,14.65
2023-03-01T10:54:20.964Z,14.41
2023-03-01T10:59:31.743Z,15.11
2023-03-01T11:04:35.269Z,14.82
2023-03-01T11:09:40.148Z,15.16
2023-03-01T11:14:49.081Z,15.59
2023-03-01T11:20:03.231Z,15.37
2023-03-01T11:25:14.178Z,14.65
2023-03-01T11:30:21.070Z,14.72
2023-03-01T11:35:26.962Z,15.56
2023-03-01T11:40:36.856Z,15.85
2023-03-01T11:45:48.713Z,15.71
2023-03-01T11:50:52.425Z,16.56
2023-03-01T11:56:07.548Z,16.61
2023-03-01T12:01:21.569Z,16.40
2023-03-01T12:06:48.040Z,16.43
2023-03-01T12:12:10.747Z,16.43
2023-03-01T12:17:28.374Z,15.71
2023-03-01T12:22:33.676Z,16.70
2023-03-01T12:27:57.073Z,16.73
2023-03-01T12:33:09.758Z,17.01
2023-03-01T12:38:26.340Z,16.47
2023-03-01T12:43:41.556Z,17.22
2023-03-01T12:48:52.963Z,17.25
2023-03-01T12:54:01.012Z,16.99
2023-03-01T12:59:14.221Z,16.85
2023-03-01T13:04:28.104Z,16.52
2023-03-01T13:09:37.279Z,17.02
2023-03-01T13:14:48.346Z,17.31
2023-03-01T13:19:58.525Z,16.92
2023-03-01T13:25:16.242Z,16.80
2023-03-01T13:30:42.953Z,16.76
2023-03-01T13:35:47.004Z,17.06
2023-03-01T13:41:01.590Z,15.89
2023-03-01T13:46:14.995Z,17.30
2023-03-01T13:51:23.920Z,17.41
2023-03-01T13:56:35.821Z,16.84
2023-03-01T14:01:43.930Z,17.73
2023-03-01T14:06:47.476Z,17.85
2023-03-01T14:12:25.596Z,17.81
2023-03-01T14:17:40.673Z,18.01
2023-03-01T14:22:54.837Z,17.89
2023-03-01T14:28:06.139Z,17.79
2023-03-01T14:33:23.588Z,17.59
2023-03-01T14:38:33.439Z,17.50
2023-03-01T14:43:40.089Z,17.31
2023-03-01T14:48:45.216Z,17.37
2023-03-01T14:53:51.182Z,17.82
2023-03-01T14:58:56.114Z,17.67
2023-03-01T15:04:02.345Z,18.09
2023-03-01T15:09:06.877Z,17.77
2023-03-01T15:14:29.050Z,17.24
2023-03-01T15:19:36.413Z,17.17
2023-03-01T15:24:40.304Z,17.32
2023-03-01T15:29:50.772Z,17.44
2023-03-01T15:34:56.181Z,16.23
2023-03-01T15:40:00.110Z,16.50
2023-03-01T15:45:11.509Z,16.93
2023-03-01T15:50:21.869Z,16.11
2023-03-01T15:55:29.534Z,16.07
2023-03-01T16:00:33.286Z,16.24
2023-03-01T16:05:40.689Z,16.21
2023-03-01T16:10:46.963Z,15.88
2023-03-01T16:15:50.574Z,15.68
2023-03-01T16:20:55.824Z,15.71
2023-03-01T16:26:02.788Z,15.78
2023-03-01T16:31:06.722Z,15.55
2023-03-01T16:36:20.057Z,15.19
2023-03-01T16:41:26.575Z,15.14
2023-03-01T16:46:30.870Z,14.95
2023-03-01T16:51:43.203Z,14.80
2023-03-01T16:56:46.662Z,14.70
2023-03-01T17:01:50.200Z,14.44
2023-03-01T17:06:57.837Z,14.17
2023-03-01T17:12:01.388Z,14.01
2023-03-01T17:17:04.912Z,13.58
2023-03-01T17:22:10.118Z,13.35
2023-03-01T17:27:14.160Z,13.10
2023-03-01T17:32:17.731Z,12.83
2023-03-01T17:37:22.710Z,12.43
2023-03-01T17:42:26.306Z,12.34
2023-03-01T17:47:29.805Z,12.03
2023-03-01T17:52:34.689Z,11.74
2023-03-01T17:57:41.791Z,11.56
2023-03-01T18:02:45.921Z,11.38
2023-03-01T18:07:54.438Z,11.18
2023-03-01T18:12:57.893Z,10.95
2023-03-01T18:18:01.416Z,10.73
2023-03-01T18:23:09.145Z,10.77
2023-03-01T18:28:15.269Z,10.73
2023-03-01T18:33:19.013Z,10.62
2023-03-01T18:38:23.903Z,10.50
2023-03-01T18:43:28.748Z,10.37
2023-03-01T18:48:36.800Z,10.27
2023-03-01T18:53:44.101Z,10.16
2023-03-01T18:58:47.618Z,10.02
2023-03-01T19:03:51.136Z,9.94
2023-03-01T19:08:55.987Z,9.80
2023-03-01T19:14:00.608Z,9.69
2023-03-01T19:19:08.411Z,9.62
2023-03-01T19:24:13.782Z,9.49
2023-03-01T19:29:17.165Z,9.37
2023-03-01T19:34:22.797Z,9.22
2023-03-01T19:39:27.968Z,9.15
2023-03-01T19:44:31.420Z,8.97
2023-03-01T19:49:37.384Z,8.83
2023-03-01T19:54:42.367Z,8.76
2023-03-01T19:59:47.882Z,8.56
2023-03-01T20:04:51.345Z,8.43
2023-03-01T20:09:56.304Z,8.24
2023-03-01T20:15:02.111Z,8.46
2023-03-01T20:20:06.501Z,8.50
2023-03-01T20:25:11.737Z,8.48
2023-03-01T20:30:16.079Z,8.42
2023-03-01T20:35:19.653Z,8.28
2023-03-01T20:40:26.933Z,8.13
2023-03-01T20:45:31.033Z,8.02
2023-03-01T20:50:34.487Z,8.06
2023-03-01T20:55:39.433Z,7.97
2023-03-01T21:00:43.056Z,7.86
2023-03-01T21:05:46.587Z,7.85
2023-03-01T21:10:52.611Z,7.76
2023-03-01T21:15:56.794Z,7.78
2023-03-01T21:21:00.858Z,7.69
2023-03-01T21:26:07.207Z,7.66
2023-03-01T21:31:12.967Z,7.60
2023-03-01T21:36:17.285Z,7.48
2023-03-01T21:41:23.884Z,7.39
2023-03-01T21:46:30.748Z,7.31
2023-03-01T21:51:36.359Z,7.24
2023-03-01T21:56:41.527Z,7.14
2023-03-01T22:01:45.283Z,7.10
2023-03-01T22:06:48.926Z,7.07
2023-03-01T22:11:58.568Z,6.95
2023-03-01T22:17:02.087Z,7.13
2023-03-01T22:22:05.698Z,7.09
2023-03-01T22:27:10.523Z,7.06
2023-03-01T22:32:14.025Z,6.84
2023-03-01T22:37:17.572Z,6.87
2023-03-01T22:42:22.373Z,6.88
2023-03-01T22:47:25.961Z,6.95
2023-03-01T22:52:29.418Z,7.06
2023-03-01T22:57:34.447Z,7.08
2023-03-01T23:02:40.388Z,7.09
2023-03-01T23:07:44.847Z,7.07
2023-03-01T23:12:49.725Z,7.00
2023-03-01T23:17:53.249Z,6.91
2023-03-01T23:23:01.384Z,6.86
2023-03-01T23:28:06.496Z,6.85
2023-03-01T23:33:09.946Z,6.65
2023-03-01T23:38:13.424Z,6.45
2023-03-01T23:43:18.192Z,6.43
2023-03-01T23:48:21.568Z,6.49
2023-03-01T23:53:25.066Z,6.43
2023-03-01T23:58:30.042Z,6.57
